sensor_id;sensor_type;location;lat;lon;timestamp;temperature;humidity
29571;DHT22;16814;52.118;11.436;2023-01-24T00:01:32;0.60;99.90
29571;DHT22;16814;52.118;11.436;2023-01-24T00:03:58;0.50;99.90
29571;DHT22;16814;52.118;11.436;2023-01-24T00:06:26;0.70;99.90
29571;DHT22;16814;52.118;11.436;2023-01-24T00:08:53;0.60;99.90
29571;DHT22;16814;52.118;11.436;2023-01-24T00:11:21;0.60;99.90
29571;DHT22;16814;52.118;11.436;2023-01-24T00:13:50;0.60;99.90
29571;DHT22;16814;52.118;11.436;2023-01-24T00:16:19;0.60;99.90
29571;DHT22;16814;52.118;11.436;2023-01-24T00:18:46;0.60;99.90
29571;DHT22;16814;52.118;11.436;2023-01-24T00:21:15;0.50;99.90
29571;DHT22;16814;52.118;11.436;2023-01-24T00:23:46;0.50;99.90
29571;DHT22;16814;52.118;11.436;2023-01-24T00:26:15;0.40;99.90
29571;DHT22;16814;52.118;11.436;2023-01-24T00:28:40;0.40;99.90
29571;DHT22;16814;52.118;11.436;2023-01-24T00:31:06;0.40;99.90
29571;DHT22;16814;52.118;11.436;2023-01-24T00:33:33;0.30;99.90
29571;DHT22;16814;52.118;11.436;2023-01-24T00:36:00;0.30;99.90
29571;DHT22;16814;52.118;11.436;2023-01-24T00:38:30;0.30;99.90
29571;DHT22;16814;52.118;11.436;2023-01-24T00:41:06;0.40;99.90
29571;DHT22;16814;52.118;11.436;2023-01-24T00:43:32;0.30;99.90
29571;DHT22;16814;52.118;11.436;2023-01-24T00:45:59;0.60;99.90
29571;DHT22;16814;52.118;11.436;2023-01-24T00:48:26;0.70;99.90
29571;DHT22;16814;52.118;11.436;2023-01-24T00:50:53;0.60;99.90
29571;DHT22;16814;52.118;11.436;2023-01-24T00:53:19;0.60;99.90
29571;DHT22;16814;52.118;11.436;2023-01-24T00:55:47;0.70;99.90
29571;DHT22;16814;52.118;11.436;2023-01-24T00:58:14;0.60;99.90
29571;DHT22;16814;52.118;11.436;2023-01-24T01:00:47;0.70;99.90
29571;DHT22;16814;52.118;11.436;2023-01-24T01:03:17;0.70;99.90
29571;DHT22;16814;52.118;11.436;2023-01-24T01:05:44;0.60;99.90
29571;DHT22;16814;52.118;11.436;2023-01-24T01:08:12;0.50;99.90
29571;DHT22;16814;52.118;11.436;2023-01-24T01:10:41;0.50;99.90
29571;DHT22;16814;52.118;11.436;2023-01-24T01:13:06;0.50;99.90
29571;DHT22;16814;52.118;11.436;2023-01-24T01:15:32;0.40;99.90
29571;DHT22;16814;52.118;11.436;2023-01-24T01:17:58;0.50;99.90
29571;DHT22;16814;52.118;11.436;2023-01-24T01:20:25;0.50;99.90
29571;DHT22;16814;52.118;11.436;2023-01-24T01:22:53;0.40;99.90
29571;DHT22;16814;52.118;11.436;2023-01-24T01:25:20;0.50;99.90
29571;DHT22;16814;52.118;11.436;2023-01-24T01:27:46;0.50;99.90
29571;DHT22;16814;52.118;11.436;2023-01-24T01:30:12;0.60;99.90
29571;DHT22;16814;52.118;11.436;2023-01-24T01:32:38;0.50;99.90
29571;DHT22;16814;52.118;11.436;2023-01-24T01:35:04;0.50;99.90
29571;DHT22;16814;52.118;11.436;2023-01-24T01:37:31;0.40;99.90
29571;DHT22;16814;52.118;11.436;2023-01-24T01:39:58;0.50;99.90
29571;DHT22;16814;52.118;11.436;2023-01-24T01:42:25;0.60;99.90
29571;DHT22;16814;52.118;11.436;2023-01-24T01:44:55;0.70;99.90
29571;DHT22;16814;52.118;11.436;2023-01-24T01:47:34;0.50;99.90
29571;DHT22;16814;52.118;11.436;2023-01-24T01:50:27;0.60;99.90
29571;DHT22;16814;52.118;11.436;2023-01-24T01:52:55;0.50;99.90
29571;DHT22;16814;52.118;11.436;2023-01-24T01:55:26;0.50;99.90
29571;DHT22;16814;52.118;11.436;2023-01-24T01:57:57;0.50;99.90
29571;DHT22;16814;52.118;11.436;2023-01-24T02:00:25;0.40;99.90
29571;DHT22;16814;52.118;11.436;2023-01-24T02:03:12;0.40;99.90
29571;DHT22;16814;52.118;11.436;2023-01-24T02:05:57;0.40;99.90
29571;DHT22;16814;52.118;11.436;2023-01-24T02:08:24;0.50;99.90
29571;DHT22;16814;52.118;11.436;2023-01-24T02:10:57;0.40;99.90
29571;DHT22;16814;52.118;11.436;2023-01-24T02:13:44;0.50;99.90
29571;DHT22;16814;52.118;11.436;2023-01-24T02:16:18;0.50;99.90
29571;DHT22;16814;52.118;11.436;2023-01-24T02:18:43;0.50;99.90
29571;DHT22;16814;52.118;11.436;2023-01-24T02:21:18;0.50;99.90
29571;DHT22;16814;52.118;11.436;2023-01-24T02:24:20;0.40;99.90
29571;DHT22;16814;52.118;11.436;2023-01-24T02:26:48;0.50;99.90
29571;DHT22;16814;52.118;11.436;2023-01-24T02:29:17;0.40;99.90
29571;DHT22;16814;52.118;11.436;2023-01-24T02:32:01;0.60;99.90
29571;DHT22;16814;52.118;11.436;2023-01-24T02:34:29;0.50;99.90
29571;DHT22;16814;52.118;11.436;2023-01-24T02:36:59;0.60;99.90
29571;DHT22;16814;52.118;11.436;2023-01-24T02:40:00;0.60;99.90
29571;DHT22;16814;52.118;11.436;2023-01-24T02:42:38;0.50;99.90
29571;DHT22;16814;52.118;11.436;2023-01-24T02:45:30;0.40;99.90
29571;DHT22;16814;52.118;11.436;2023-01-24T02:47:57;0.20;99.90
29571;DHT22;16814;52.118;11.436;2023-01-24T02:50:26;0.30;99.90
29571;DHT22;16814;52.118;11.436;2023-01-24T02:52:52;0.30;99.90
29571;DHT22;16814;52.118;11.436;2023-01-24T02:55:39;0.30;99.90
29571;DHT22;16814;52.118;11.436;2023-01-24T02:58:30;0.30;99.90
29571;DHT22;16814;52.118;11.436;2023-01-24T03:00:57;0.40;99.90
29571;DHT22;16814;52.118;11.436;2023-01-24T03:03:24;0.40;99.90
29571;DHT22;16814;52.118;11.436;2023-01-24T03:05:51;0.40;99.90
29571;DHT22;16814;52.118;11.436;2023-01-24T03:08:26;0.40;99.90
29571;DHT22;16814;52.118;11.436;2023-01-24T03:10:52;0.30;99.90
29571;DHT22;16814;52.118;11.436;2023-01-24T03:13:18;0.50;99.90
29571;DHT22;16814;52.118;11.436;2023-01-24T03:16:07;0.40;99.90
29571;DHT22;16814;52.118;11.436;2023-01-24T03:18:56;0.30;99.90
29571;DHT22;16814;52.118;11.436;2023-01-24T03:21:46;0.50;99.90
29571;DHT22;16814;52.118;11.436;2023-01-24T03:24:35;0.40;99.90
29571;DHT22;16814;52.118;11.436;2023-01-24T03:27:23;0.30;99.90
29571;DHT22;16814;52.118;11.436;2023-01-24T03:30:08;0.30;99.90
29571;DHT22;16814;52.118;11.436;2023-01-24T03:33:02;0.30;99.90
29571;DHT22;16814;52.118;11.436;2023-01-24T03:35:50;0.30;99.90
29571;DHT22;16814;52.118;11.436;2023-01-24T03:38:24;0.40;99.90
29571;DHT22;16814;52.118;11.436;2023-01-24T03:41:13;0.40;99.90
29571;DHT22;16814;52.118;11.436;2023-01-24T03:43:41;0.40;99.90
29571;DHT22;16814;52.118;11.436;2023-01-24T03:46:08;0.40;99.90
29571;DHT22;16814;52.118;11.436;2023-01-24T03:48:33;0.40;99.90
29571;DHT22;16814;52.118;11.436;2023-01-24T03:51:08;0.40;99.90
29571;DHT22;16814;52.118;11.436;2023-01-24T03:53:55;0.40;99.90
29571;DHT22;16814;52.118;11.436;2023-01-24T03:56:23;0.30;99.90
29571;DHT22;16814;52.118;11.436;2023-01-24T03:58:49;0.30;99.90
29571;DHT22;16814;52.118;11.436;2023-01-24T04:01:20;0.30;99.90
29571;DHT22;16814;52.118;11.436;2023-01-24T04:03:48;0.30;99.90
29571;DHT22;16814;52.118;11.436;2023-01-24T04:06:14;0.30;99.90
29571;DHT22;16814;52.118;11.436;2023-01-24T04:08:41;0.30;99.90
29571;DHT22;16814;52.118;11.436;2023-01-24T04:11:08;0.30;99.90
29571;DHT22;16814;52.118;11.436;2023-01-24T04:13:34;0.30;99.90
29571;DHT22;16814;52.118;11.436;2023-01-24T04:16:05;0.20;99.90
29571;DHT22;16814;52.118;11.436;2023-01-24T04:18:31;0.20;99.90
29571;DHT22;16814;52.118;11.436;2023-01-24T04:21:03;0.20;99.90
29571;DHT22;16814;52.118;11.436;2023-01-24T04:23:32;0.30;99.90
29571;DHT22;16814;52.118;11.436;2023-01-24T04:25:59;0.30;99.90
29571;DHT22;16814;52.118;11.436;2023-01-24T04:28:27;0.40;99.90
29571;DHT22;16814;52.118;11.436;2023-01-24T04:30:59;0.40;99.90
29571;DHT22;16814;52.118;11.436;2023-01-24T04:33:27;0.60;99.90
29571;DHT22;16814;52.118;11.436;2023-01-24T04:36:00;0.40;99.90
29571;DHT22;16814;52.118;11.436;2023-01-24T04:38:27;0.30;99.90
29571;DHT22;16814;52.118;11.436;2023-01-24T04:40:58;0.30;99.90
29571;DHT22;16814;52.118;11.436;2023-01-24T04:43:25;0.20;99.90
29571;DHT22;16814;52.118;11.436;2023-01-24T04:45:55;0.40;99.90
29571;DHT22;16814;52.118;11.436;2023-01-24T04:48:21;0.40;99.90
29571;DHT22;16814;52.118;11.436;2023-01-24T04:50:49;0.60;99.90
29571;DHT22;16814;52.118;11.436;2023-01-24T04:53:16;0.50;99.90
29571;DHT22;16814;52.118;11.436;2023-01-24T04:55:44;0.50;99.90
29571;DHT22;16814;52.118;11.436;2023-01-24T04:58:11;0.50;99.90
29571;DHT22;16814;52.118;11.436;2023-01-24T05:00:39;0.40;99.90
29571;DHT22;16814;52.118;11.436;2023-01-24T05:03:07;0.40;99.90
29571;DHT22;16814;52.118;11.436;2023-01-24T05:05:34;0.50;99.90
29571;DHT22;16814;52.118;11.436;2023-01-24T05:08:01;0.50;99.90
29571;DHT22;16814;52.118;11.436;2023-01-24T05:10:26;0.50;99.90
29571;DHT22;16814;52.118;11.436;2023-01-24T05:12:53;0.40;99.90
29571;DHT22;16814;52.118;11.436;2023-01-24T05:15:22;0.50;99.90
29571;DHT22;16814;52.118;11.436;2023-01-24T05:17:51;0.40;99.90
29571;DHT22;16814;52.118;11.436;2023-01-24T05:20:18;0.50;99.90
29571;DHT22;16814;52.118;11.436;2023-01-24T05:22:45;0.50;99.90
29571;DHT22;16814;52.118;11.436;2023-01-24T05:25:14;0.40;99.90
29571;DHT22;16814;52.118;11.436;2023-01-24T05:27:42;0.30;99.90
29571;DHT22;16814;52.118;11.436;2023-01-24T05:30:09;0.20;99.90
29571;DHT22;16814;52.118;11.436;2023-01-24T05:32:35;0.30;99.90
29571;DHT22;16814;52.118;11.436;2023-01-24T05:35:01;0.30;99.90
29571;DHT22;16814;52.118;11.436;2023-01-24T05:37:28;0.30;99.90
29571;DHT22;16814;52.118;11.436;2023-01-24T05:39:56;0.30;99.90
29571;DHT22;16814;52.118;11.436;2023-01-24T05:42:23;0.50;99.90
29571;DHT22;16814;52.118;11.436;2023-01-24T05:44:52;0.40;99.90
29571;DHT22;16814;52.118;11.436;2023-01-24T05:47:19;0.30;99.90
29571;DHT22;16814;52.118;11.436;2023-01-24T05:49:46;0.30;99.90
29571;DHT22;16814;52.118;11.436;2023-01-24T05:52:13;0.30;99.90
29571;DHT22;16814;52.118;11.436;2023-01-24T05:54:48;0.30;99.90
29571;DHT22;16814;52.118;11.436;2023-01-24T05:57:14;0.20;99.90
29571;DHT22;16814;52.118;11.436;2023-01-24T05:59:40;0.30;99.90
29571;DHT22;16814;52.118;11.436;2023-01-24T06:02:06;0.20;99.90
29571;DHT22;16814;52.118;11.436;2023-01-24T06:04:32;0.50;99.90
29571;DHT22;16814;52.118;11.436;2023-01-24T06:06:59;0.30;99.90
29571;DHT22;16814;52.118;11.436;2023-01-24T06:09:26;0.20;99.90
29571;DHT22;16814;52.118;11.436;2023-01-24T06:11:52;0.30;99.90
29571;DHT22;16814;52.118;11.436;2023-01-24T06:14:20;0.30;99.90
29571;DHT22;16814;52.118;11.436;2023-01-24T06:16:46;0.30;99.90
29571;DHT22;16814;52.118;11.436;2023-01-24T06:19:15;0.20;99.90
29571;DHT22;16814;52.118;11.436;2023-01-24T06:21:46;0.20;99.90
29571;DHT22;16814;52.118;11.436;2023-01-24T06:24:23;0.30;99.90
29571;DHT22;16814;52.118;11.436;2023-01-24T06:26:51;0.30;99.90
29571;DHT22;16814;52.118;11.436;2023-01-24T06:29:17;0.30;99.90
29571;DHT22;16814;52.118;11.436;2023-01-24T06:37:50;0.40;99.90
29571;DHT22;16814;52.118;11.436;2023-01-24T06:40:20;0.40;99.90
29571;DHT22;16814;52.118;11.436;2023-01-24T06:42:49;0.30;99.90
29571;DHT22;16814;52.118;11.436;2023-01-24T06:45:17;0.30;99.90
29571;DHT22;16814;52.118;11.436;2023-01-24T06:47:45;0.40;99.90
29571;DHT22;16814;52.118;11.436;2023-01-24T06:50:17;0.30;99.90
29571;DHT22;16814;52.118;11.436;2023-01-24T06:52:51;0.20;99.90
29571;DHT22;16814;52.118;11.436;2023-01-24T06:55:20;0.20;99.90
29571;DHT22;16814;52.118;11.436;2023-01-24T06:57:45;0.20;99.90
29571;DHT22;16814;52.118;11.436;2023-01-24T07:00:14;0.30;99.90
29571;DHT22;16814;52.118;11.436;2023-01-24T07:02:43;0.20;99.90
29571;DHT22;16814;52.118;11.436;2023-01-24T07:05:10;0.20;99.90
29571;DHT22;16814;52.118;11.436;2023-01-24T07:07:39;0.20;99.90
29571;DHT22;16814;52.118;11.436;2023-01-24T07:10:06;0.30;99.90
29571;DHT22;16814;52.118;11.436;2023-01-24T07:12:32;0.30;99.90
29571;DHT22;16814;52.118;11.436;2023-01-24T07:14:59;0.30;99.90
29571;DHT22;16814;52.118;11.436;2023-01-24T07:17:25;0.30;99.90
29571;DHT22;16814;52.118;11.436;2023-01-24T07:19:52;0.20;99.90
29571;DHT22;16814;52.118;11.436;2023-01-24T07:22:21;0.20;99.90
29571;DHT22;16814;52.118;11.436;2023-01-24T07:24:48;0.30;99.90
29571;DHT22;16814;52.118;11.436;2023-01-24T07:27:17;0.20;99.90
29571;DHT22;16814;52.118;11.436;2023-01-24T07:29:44;0.10;99.90
29571;DHT22;16814;52.118;11.436;2023-01-24T07:32:11;0.10;99.90
29571;DHT22;16814;52.118;11.436;2023-01-24T07:34:37;0.20;99.90
29571;DHT22;16814;52.118;11.436;2023-01-24T07:37:07;0.30;99.90
29571;DHT22;16814;52.118;11.436;2023-01-24T07:39:35;0.10;99.90
29571;DHT22;16814;52.118;11.436;2023-01-24T07:42:02;0.20;99.90
29571;DHT22;16814;52.118;11.436;2023-01-24T07:44:29;0.10;99.90
29571;DHT22;16814;52.118;11.436;2023-01-24T07:46:55;0.10;99.90
29571;DHT22;16814;52.118;11.436;2023-01-24T07:49:21;0.10;99.90
29571;DHT22;16814;52.118;11.436;2023-01-24T07:51:48;0.10;99.90
29571;DHT22;16814;52.118;11.436;2023-01-24T07:54:14;0.30;99.90
29571;DHT22;16814;52.118;11.436;2023-01-24T07:56:42;0.20;99.90
29571;DHT22;16814;52.118;11.436;2023-01-24T07:59:10;0.20;99.90
29571;DHT22;16814;52.118;11.436;2023-01-24T08:01:37;0.10;99.90
29571;DHT22;16814;52.118;11.436;2023-01-24T08:04:05;0.00;99.90
29571;DHT22;16814;52.118;11.436;2023-01-24T08:06:38;0.10;99.90
29571;DHT22;16814;52.118;11.436;2023-01-24T08:09:30;0.10;99.90
29571;DHT22;16814;52.118;11.436;2023-01-24T08:11:58;0.20;99.90
29571;DHT22;16814;52.118;11.436;2023-01-24T08:14:23;0.20;99.90
29571;DHT22;16814;52.118;11.436;2023-01-24T08:16:49;0.10;99.90
29571;DHT22;16814;52.118;11.436;2023-01-24T08:19:16;0.20;99.90
29571;DHT22;16814;52.118;11.436;2023-01-24T08:21:44;0.20;99.90
29571;DHT22;16814;52.118;11.436;2023-01-24T08:24:11;0.30;99.90
29571;DHT22;16814;52.118;11.436;2023-01-24T08:26:41;0.40;99.90
29571;DHT22;16814;52.118;11.436;2023-01-24T08:29:07;0.20;99.90
29571;DHT22;16814;52.118;11.436;2023-01-24T08:31:35;0.10;99.90
29571;DHT22;16814;52.118;11.436;2023-01-24T08:34:04;0.20;99.90
29571;DHT22;16814;52.118;11.436;2023-01-24T08:36:30;0.30;99.90
29571;DHT22;16814;52.118;11.436;2023-01-24T08:38:56;0.30;99.90
29571;DHT22;16814;52.118;11.436;2023-01-24T08:41:22;0.20;99.90
29571;DHT22;16814;52.118;11.436;2023-01-24T08:43:47;0.30;99.90
29571;DHT22;16814;52.118;11.436;2023-01-24T08:46:16;0.50;99.90
29571;DHT22;16814;52.118;11.436;2023-01-24T08:48:43;0.40;99.90
29571;DHT22;16814;52.118;11.436;2023-01-24T08:51:11;0.30;99.90
29571;DHT22;16814;52.118;11.436;2023-01-24T08:53:40;0.20;99.90
29571;DHT22;16814;52.118;11.436;2023-01-24T08:56:06;0.20;99.90
29571;DHT22;16814;52.118;11.436;2023-01-24T08:58:38;0.10;99.90
29571;DHT22;16814;52.118;11.436;2023-01-24T09:01:10;0.30;99.90
29571;DHT22;16814;52.118;11.436;2023-01-24T09:03:37;0.30;99.90
29571;DHT22;16814;52.118;11.436;2023-01-24T09:06:03;0.20;99.90
29571;DHT22;16814;52.118;11.436;2023-01-24T09:08:29;0.30;99.90
29571;DHT22;16814;52.118;11.436;2023-01-24T09:10:58;0.20;99.90
29571;DHT22;16814;52.118;11.436;2023-01-24T09:13:25;0.20;99.90
29571;DHT22;16814;52.118;11.436;2023-01-24T09:15:52;0.20;99.90
29571;DHT22;16814;52.118;11.436;2023-01-24T09:18:18;0.30;99.90
29571;DHT22;16814;52.118;11.436;2023-01-24T09:20:43;0.30;99.90
29571;DHT22;16814;52.118;11.436;2023-01-24T09:23:13;0.50;99.90
29571;DHT22;16814;52.118;11.436;2023-01-24T09:25:40;0.20;99.90
29571;DHT22;16814;52.118;11.436;2023-01-24T09:28:06;0.20;99.90
29571;DHT22;16814;52.118;11.436;2023-01-24T09:30:33;0.30;99.90
29571;DHT22;16814;52.118;11.436;2023-01-24T09:33:02;0.20;99.90
29571;DHT22;16814;52.118;11.436;2023-01-24T09:35:27;0.20;99.90
29571;DHT22;16814;52.118;11.436;2023-01-24T09:37:53;0.20;99.90
29571;DHT22;16814;52.118;11.436;2023-01-24T09:40:25;0.20;99.90
29571;DHT22;16814;52.118;11.436;2023-01-24T09:46:02;0.20;99.90
29571;DHT22;16814;52.118;11.436;2023-01-24T09:48:32;0.20;99.90
29571;DHT22;16814;52.118;11.436;2023-01-24T09:51:03;0.20;99.90
29571;DHT22;16814;52.118;11.436;2023-01-24T09:53:42;0.10;99.90
29571;DHT22;16814;52.118;11.436;2023-01-24T09:56:18;0.10;99.90
29571;DHT22;16814;52.118;11.436;2023-01-24T10:01:37;0.10;99.90
29571;DHT22;16814;52.118;11.436;2023-01-24T10:04:33;0.30;99.90
29571;DHT22;16814;52.118;11.436;2023-01-24T10:13:07;0.30;99.90
29571;DHT22;16814;52.118;11.436;2023-01-24T10:24:41;0.60;99.90
29571;DHT22;16814;52.118;11.436;2023-01-24T10:27:35;0.50;99.90
29571;DHT22;16814;52.118;11.436;2023-01-24T10:30:16;0.60;99.90
29571;DHT22;16814;52.118;11.436;2023-01-24T10:32:44;0.60;99.90
29571;DHT22;16814;52.118;11.436;2023-01-24T10:35:36;0.70;99.90
29571;DHT22;16814;52.118;11.436;2023-01-24T10:38:05;0.50;99.90
29571;DHT22;16814;52.118;11.436;2023-01-24T10:40:32;0.60;99.90
29571;DHT22;16814;52.118;11.436;2023-01-24T10:43:06;0.60;99.90
29571;DHT22;16814;52.118;11.436;2023-01-24T10:45:46;0.80;99.90
29571;DHT22;16814;52.118;11.436;2023-01-24T10:48:36;0.60;99.90
29571;DHT22;16814;52.118;11.436;2023-01-24T10:51:11;0.60;99.90
29571;DHT22;16814;52.118;11.436;2023-01-24T10:53:38;0.60;99.90
29571;DHT22;16814;52.118;11.436;2023-01-24T10:56:05;0.50;99.90
29571;DHT22;16814;52.118;11.436;2023-01-24T11:01:42;0.40;99.90
29571;DHT22;16814;52.118;11.436;2023-01-24T11:04:28;0.40;99.90
29571;DHT22;16814;52.118;11.436;2023-01-24T11:06:56;0.30;99.90
29571;DHT22;16814;52.118;11.436;2023-01-24T11:09:30;0.40;99.90
29571;DHT22;16814;52.118;11.436;2023-01-24T11:12:03;0.30;99.90
29571;DHT22;16814;52.118;11.436;2023-01-24T11:14:32;0.30;99.90
29571;DHT22;16814;52.118;11.436;2023-01-24T11:17:01;0.30;99.90
29571;DHT22;16814;52.118;11.436;2023-01-24T11:19:38;0.40;99.90
29571;DHT22;16814;52.118;11.436;2023-01-24T11:22:25;0.50;99.90
29571;DHT22;16814;52.118;11.436;2023-01-24T11:24:58;0.70;99.90
29571;DHT22;16814;52.118;11.436;2023-01-24T11:27:24;0.80;99.90
29571;DHT22;16814;52.118;11.436;2023-01-24T11:30:29;0.90;99.90
29571;DHT22;16814;52.118;11.436;2023-01-24T11:36:24;0.80;99.90
29571;DHT22;16814;52.118;11.436;2023-01-24T11:38:59;0.90;99.90
29571;DHT22;16814;52.118;11.436;2023-01-24T11:41:34;0.80;99.90
29571;DHT22;16814;52.118;11.436;2023-01-24T11:44:34;0.90;99.90
29571;DHT22;16814;52.118;11.436;2023-01-24T11:47:24;0.90;99.90
29571;DHT22;16814;52.118;11.436;2023-01-24T11:53:42;0.80;99.90
29571;DHT22;16814;52.118;11.436;2023-01-24T12:13:05;0.80;99.90
29571;DHT22;16814;52.118;11.436;2023-01-24T12:21:15;0.90;99.90
29571;DHT22;16814;52.118;11.436;2023-01-24T12:26:30;0.70;99.90
29571;DHT22;16814;52.118;11.436;2023-01-24T12:31:48;0.80;99.90
29571;DHT22;16814;52.118;11.436;2023-01-24T12:38:00;0.80;99.90
29571;DHT22;16814;52.118;11.436;2023-01-24T12:40:53;0.60;99.90
29571;DHT22;16814;52.118;11.436;2023-01-24T12:43:55;0.70;99.90
29571;DHT22;16814;52.118;11.436;2023-01-24T12:46:46;0.70;99.90
29571;DHT22;16814;52.118;11.436;2023-01-24T12:49:27;0.70;99.90
29571;DHT22;16814;52.118;11.436;2023-01-24T12:52:16;0.70;99.90
29571;DHT22;16814;52.118;11.436;2023-01-24T13:01:04;0.70;99.90
29571;DHT22;16814;52.118;11.436;2023-01-24T13:07:01;1.00;99.90
29571;DHT22;16814;52.118;11.436;2023-01-24T13:12:33;1.10;99.90
29571;DHT22;16814;52.118;11.436;2023-01-24T13:18:07;0.90;99.90
29571;DHT22;16814;52.118;11.436;2023-01-24T13:27:01;1.00;99.90
29571;DHT22;16814;52.118;11.436;2023-01-24T13:32:16;0.80;99.90
29571;DHT22;16814;52.118;11.436;2023-01-24T13:34:55;0.90;99.90
29571;DHT22;16814;52.118;11.436;2023-01-24T13:37:28;0.70;99.90
29571;DHT22;16814;52.118;11.436;2023-01-24T13:42:42;0.70;99.90
29571;DHT22;16814;52.118;11.436;2023-01-24T13:47:57;0.90;99.90
29571;DHT22;16814;52.118;11.436;2023-01-24T13:50:34;0.70;99.90
29571;DHT22;16814;52.118;11.436;2023-01-24T13:53:04;0.80;99.90
29571;DHT22;16814;52.118;11.436;2023-01-24T13:58:16;0.80;99.90
29571;DHT22;16814;52.118;11.436;2023-01-24T14:00:51;0.80;99.90
29571;DHT22;16814;52.118;11.436;2023-01-24T14:03:33;0.80;99.90
29571;DHT22;16814;52.118;11.436;2023-01-24T14:19:17;0.90;99.90
29571;DHT22;16814;52.118;11.436;2023-01-24T14:27:47;0.80;99.90
29571;DHT22;16814;52.118;11.436;2023-01-24T14:39:11;0.60;99.90
29571;DHT22;16814;52.118;11.436;2023-01-24T14:41:41;0.70;99.90
29571;DHT22;16814;52.118;11.436;2023-01-24T14:44:32;0.50;99.90
29571;DHT22;16814;52.118;11.436;2023-01-24T14:50:21;0.50;99.90
29571;DHT22;16814;52.118;11.436;2023-01-24T14:52:48;0.50;99.90
29571;DHT22;16814;52.118;11.436;2023-01-24T14:57:53;0.50;99.90
29571;DHT22;16814;52.118;11.436;2023-01-24T15:00:21;0.60;99.90
29571;DHT22;16814;52.118;11.436;2023-01-24T15:02:59;0.50;99.90
29571;DHT22;16814;52.118;11.436;2023-01-24T15:05:30;0.60;99.90
29571;DHT22;16814;52.118;11.436;2023-01-24T15:07:59;0.80;99.90
29571;DHT22;16814;52.118;11.436;2023-01-24T15:10:35;0.70;99.90
29571;DHT22;16814;52.118;11.436;2023-01-24T15:13:09;0.70;99.90
29571;DHT22;16814;52.118;11.436;2023-01-24T15:15:46;0.70;99.90
29571;DHT22;16814;52.118;11.436;2023-01-24T15:18:41;0.60;99.90
29571;DHT22;16814;52.118;11.436;2023-01-24T15:23:51;0.50;99.90
29571;DHT22;16814;52.118;11.436;2023-01-24T15:35:19;0.70;99.90
29571;DHT22;16814;52.118;11.436;2023-01-24T15:40:59;0.60;99.90
29571;DHT22;16814;52.118;11.436;2023-01-24T15:43:37;0.70;99.90
29571;DHT22;16814;52.118;11.436;2023-01-24T15:46:26;0.60;99.90
29571;DHT22;16814;52.118;11.436;2023-01-24T15:49:27;0.60;99.90
29571;DHT22;16814;52.118;11.436;2023-01-24T15:54:58;0.50;99.90
29571;DHT22;16814;52.118;11.436;2023-01-24T15:57:34;0.30;99.90
29571;DHT22;16814;52.118;11.436;2023-01-24T16:00:23;0.30;99.90
29571;DHT22;16814;52.118;11.436;2023-01-24T16:02:50;0.40;99.90
29571;DHT22;16814;52.118;11.436;2023-01-24T16:05:18;0.40;99.90
29571;DHT22;16814;52.118;11.436;2023-01-24T16:07:44;0.50;99.90
29571;DHT22;16814;52.118;11.436;2023-01-24T16:10:17;0.60;99.90
29571;DHT22;16814;52.118;11.436;2023-01-24T16:12:45;0.60;99.90
29571;DHT22;16814;52.118;11.436;2023-01-24T16:15:20;0.60;99.90
29571;DHT22;16814;52.118;11.436;2023-01-24T16:17:47;0.50;99.90
29571;DHT22;16814;52.118;11.436;2023-01-24T16:20:27;0.50;99.90
29571;DHT22;16814;52.118;11.436;2023-01-24T16:22:56;0.50;99.90
29571;DHT22;16814;52.118;11.436;2023-01-24T16:25:23;0.60;99.90
29571;DHT22;16814;52.118;11.436;2023-01-24T16:27:50;0.50;99.90
29571;DHT22;16814;52.118;11.436;2023-01-24T16:30:22;0.40;99.90
29571;DHT22;16814;52.118;11.436;2023-01-24T16:32:51;0.40;99.90
29571;DHT22;16814;52.118;11.436;2023-01-24T16:35:18;0.30;99.90
29571;DHT22;16814;52.118;11.436;2023-01-24T16:37:45;0.30;99.90
29571;DHT22;16814;52.118;11.436;2023-01-24T16:40:12;0.40;99.90
29571;DHT22;16814;52.118;11.436;2023-01-24T16:42:43;0.30;99.90
29571;DHT22;16814;52.118;11.436;2023-01-24T16:45:18;0.40;99.90
29571;DHT22;16814;52.118;11.436;2023-01-24T16:47:46;0.50;99.90
29571;DHT22;16814;52.118;11.436;2023-01-24T16:50:14;0.40;99.90
29571;DHT22;16814;52.118;11.436;2023-01-24T16:52:41;0.30;99.90
29571;DHT22;16814;52.118;11.436;2023-01-24T16:55:08;0.40;99.90
29571;DHT22;16814;52.118;11.436;2023-01-24T16:57:35;0.40;99.90
29571;DHT22;16814;52.118;11.436;2023-01-24T17:00:04;0.40;99.90
29571;DHT22;16814;52.118;11.436;2023-01-24T17:02:33;0.40;99.90
29571;DHT22;16814;52.118;11.436;2023-01-24T17:04:58;0.40;99.90
29571;DHT22;16814;52.118;11.436;2023-01-24T17:07:26;0.50;99.90
29571;DHT22;16814;52.118;11.436;2023-01-24T17:09:52;0.30;99.90
29571;DHT22;16814;52.118;11.436;2023-01-24T17:12:18;0.50;99.90
29571;DHT22;16814;52.118;11.436;2023-01-24T17:14:47;0.40;99.90
29571;DHT22;16814;52.118;11.436;2023-01-24T17:17:14;0.30;99.90
29571;DHT22;16814;52.118;11.436;2023-01-24T17:19:40;0.20;99.90
29571;DHT22;16814;52.118;11.436;2023-01-24T17:22:06;0.10;99.90
29571;DHT22;16814;52.118;11.436;2023-01-24T17:24:34;0.10;99.90
29571;DHT22;16814;52.118;11.436;2023-01-24T17:27:01;0.10;99.90
29571;DHT22;16814;52.118;11.436;2023-01-24T17:29:28;0.30;99.90
29571;DHT22;16814;52.118;11.436;2023-01-24T17:31:55;0.20;99.90
29571;DHT22;16814;52.118;11.436;2023-01-24T17:34:22;0.20;99.90
29571;DHT22;16814;52.118;11.436;2023-01-24T17:36:47;0.10;99.90
29571;DHT22;16814;52.118;11.436;2023-01-24T17:39:17;0.10;99.90
29571;DHT22;16814;52.118;11.436;2023-01-24T17:41:42;0.10;99.90
29571;DHT22;16814;52.118;11.436;2023-01-24T17:44:09;0.10;99.90
29571;DHT22;16814;52.118;11.436;2023-01-24T17:46:45;0.10;99.90
29571;DHT22;16814;52.118;11.436;2023-01-24T17:49:11;0.00;99.90
29571;DHT22;16814;52.118;11.436;2023-01-24T17:51:39;0.00;99.90
29571;DHT22;16814;52.118;11.436;2023-01-24T17:54:09;0.00;99.90
29571;DHT22;16814;52.118;11.436;2023-01-24T17:56:37;0.00;99.90
29571;DHT22;16814;52.118;11.436;2023-01-24T17:59:15;0.00;99.90
29571;DHT22;16814;52.118;11.436;2023-01-24T18:01:42;0.00;99.90
29571;DHT22;16814;52.118;11.436;2023-01-24T18:04:12;0.00;99.90
29571;DHT22;16814;52.118;11.436;2023-01-24T18:06:39;-0.10;99.90
29571;DHT22;16814;52.118;11.436;2023-01-24T18:09:04;0.00;99.90
29571;DHT22;16814;52.118;11.436;2023-01-24T18:11:31;0.00;99.90
29571;DHT22;16814;52.118;11.436;2023-01-24T18:13:59;0.00;99.90
29571;DHT22;16814;52.118;11.436;2023-01-24T18:16:26;0.00;99.90
29571;DHT22;16814;52.118;11.436;2023-01-24T18:18:53;0.10;99.90
29571;DHT22;16814;52.118;11.436;2023-01-24T18:21:22;0.10;99.90
29571;DHT22;16814;52.118;11.436;2023-01-24T18:23:56;0.20;99.90
29571;DHT22;16814;52.118;11.436;2023-01-24T18:26:24;0.20;99.90
29571;DHT22;16814;52.118;11.436;2023-01-24T18:28:50;0.20;99.90